Pagrindinis puslapis
METAR-TAF:

METAR-TAF

Oro uostai :

Vientianas, Laosas

platuma: 17-57N, ilguma: 102-34E, Aukštis: 171 m

Dabartinis oras

Ataskaita buvo paskelbta 4 valandos ir 33 minutes, ne 16:00 UTC
Vėjas 4 kt iš Rytų
Temperatūra 25°C
Drėgmė 100%
Slėgis 1009 hPa
Matomumas: 4000 m
Su prošvaistėmis ne aukštis 4000 ft
Apsiniaukę ne aukštis 8300 ft
lietus

METAR: VLVT 171600Z 09004KT 4000 RA BKN040 OVC083 25/25 Q1009 NOSIG

Laikas: 03:33 (20:33 UTC)

Prognozė

Ataskaita buvo paskelbta 3 valandos ir 33 minutes, ne 17:00 UTC
Prognozė galioja nuo 17 metu 18 UTC su 18 metu 18 UTC
Vėjas 6 kt iš Pietvakarių
Matomumas: 8000 m
Išsisklaidę debesys ne aukštis 1600 ft
Išsisklaidę debesys ne aukštis 4000 ft
Su prošvaistėmis ne aukštis 8300 ft
Laikinai
nuo 17 metu 18 UTC su 17 metu 22 UTC
Matomumas: 4000 m
Išsisklaidę debesys ne aukštis 1000 ft
Apsiniaukę ne aukštis 8300 ft
lietus

TAF: VLVT 171700Z 1718/1818 22006KT 8000 SCT016 SCT040 BKN083 TEMPO 1718/1722 4000 RA SCT010 OVC083

Orai ataskaitas ir orų prognozės (METAR, TAF).

turimą stotys yra geltonos ir raudonos taškus žemėlapyje.

Perkelti pele per norėdami pamatyti stoties vardą.

Tada spustelėkite, norėdami matyti oro stebėjimo ir prognozės.

Norėdami pakeisti žemėlapį: spustelėkite ant žalios mygtukų su juodo kryžiaus žemyn,; žalią mygtuką su brūkšneliu, jei norite nutolinti; arba žalių rodyklių gretimoms žemėlapius.


METAR-TAF: